createdAt,value
2019-03-25T00:01:55.989Z,74.45
2019-03-25T00:04:30.427Z,78.28
2019-03-25T00:07:01.652Z,79.60
2019-03-25T00:09:33.211Z,81.82
2019-03-25T00:12:04.551Z,76.77
2019-03-25T00:14:35.680Z,78.57
2019-03-25T00:17:07.207Z,80.28
2019-03-25T00:19:38.453Z,78.13
2019-03-25T00:22:09.485Z,81.67
2019-03-25T00:24:41.740Z,77.33
2019-03-25T00:27:17.228Z,75.08
2019-03-25T00:29:50.203Z,73.85
2019-03-25T00:32:21.683Z,74.15
2019-03-25T00:34:53.119Z,74.00
2019-03-25T00:37:24.356Z,73.35
2019-03-25T00:39:55.564Z,80.72
2019-03-25T00:42:27.039Z,73.95
2019-03-25T00:44:58.616Z,73.40
2019-03-25T00:47:29.748Z,74.15
2019-03-25T00:50:00.955Z,76.02
2019-03-25T00:52:32.406Z,72.17
2019-03-25T00:55:06.751Z,73.83
2019-03-25T00:57:38.534Z,74.07
2019-03-25T01:00:10.580Z,76.17
2019-03-25T01:02:42.064Z,76.02
2019-03-25T01:05:13.801Z,74.92
2019-03-25T01:07:45.674Z,72.92
2019-03-25T01:10:17.034Z,78.37
2019-03-25T01:12:48.594Z,77.85
2019-03-25T01:15:19.626Z,75.15
2019-03-25T01:17:50.828Z,78.50
2019-03-25T01:20:21.999Z,78.83
2019-03-25T01:22:53.420Z,79.10
2019-03-25T01:25:24.914Z,78.90
2019-03-25T01:27:55.938Z,77.90
2019-03-25T01:30:27.159Z,79.63
2019-03-25T01:32:58.572Z,79.90
2019-03-25T01:35:29.931Z,78.07
2019-03-25T01:38:01.026Z,81.82
2019-03-25T01:40:32.228Z,78.78
2019-03-25T01:43:03.574Z,78.95
2019-03-25T01:45:34.710Z,78.37
2019-03-25T01:48:06.072Z,80.40
2019-03-25T01:50:37.158Z,80.77
2019-03-25T01:53:08.660Z,79.07
2019-03-25T01:55:39.906Z,79.83
2019-03-25T01:58:11.455Z,81.87
2019-03-25T02:00:43.083Z,78.17
2019-03-25T02:03:14.467Z,80.95
2019-03-25T02:05:45.639Z,77.70
2019-03-25T02:08:17.197Z,82.37
2019-03-25T02:10:49.134Z,81.80
2019-03-25T02:13:20.167Z,78.52
2019-03-25T02:15:51.362Z,83.10
2019-03-25T02:18:22.973Z,82.17
2019-03-25T02:20:54.108Z,78.97
2019-03-25T02:23:25.688Z,79.15
2019-03-25T02:25:56.975Z,77.23
2019-03-25T02:28:28.468Z,77.63
2019-03-25T02:30:59.695Z,82.65
2019-03-25T02:33:32.797Z,80.22
2019-03-25T02:36:04.093Z,85.87
2019-03-25T02:38:35.491Z,84.70
2019-03-25T02:41:06.956Z,82.15
2019-03-25T02:43:38.103Z,84.40
2019-03-25T02:46:09.162Z,80.60
2019-03-25T02:48:40.421Z,81.47
2019-03-25T02:51:11.609Z,83.33
2019-03-25T02:53:43.104Z,85.10
2019-03-25T02:56:14.948Z,86.55
2019-03-25T02:58:46.039Z,85.10
2019-03-25T03:01:17.193Z,86.45
2019-03-25T03:03:48.448Z,83.70
2019-03-25T03:06:19.555Z,84.10
2019-03-25T03:08:50.963Z,84.70
2019-03-25T03:11:22.470Z,85.30
2019-03-25T03:13:53.525Z,84.47
2019-03-25T03:16:24.669Z,84.03
2019-03-25T03:18:56.188Z,88.35
2019-03-25T03:21:27.739Z,90.00
2019-03-25T03:23:58.883Z,89.65
2019-03-25T03:26:30.521Z,86.15
2019-03-25T03:29:01.600Z,85.97
2019-03-25T03:31:33.131Z,89.15
2019-03-25T03:34:04.757Z,92.50
2019-03-25T03:36:36.310Z,91.55
2019-03-25T03:39:08.538Z,93.33
2019-03-25T03:41:40.024Z,91.80
2019-03-25T03:44:11.209Z,89.55
2019-03-25T03:46:42.421Z,93.97
2019-03-25T03:49:14.000Z,90.97
2019-03-25T03:51:45.373Z,86.40
2019-03-25T03:54:16.825Z,92.40
2019-03-25T03:56:48.301Z,86.25
2019-03-25T03:59:20.496Z,85.77
2019-03-25T04:01:51.643Z,86.63
2019-03-25T04:04:22.779Z,88.80
2019-03-25T04:06:54.374Z,90.67
2019-03-25T04:09:25.558Z,89.75
2019-03-25T04:11:56.835Z,90.07
2019-03-25T04:14:28.653Z,93.50
2019-03-25T04:17:00.248Z,93.07
2019-03-25T04:19:31.792Z,87.82
2019-03-25T04:22:03.810Z,88.10
2019-03-25T04:24:35.300Z,91.87
2019-03-25T04:27:07.298Z,91.37
2019-03-25T04:29:38.688Z,89.42
2019-03-25T04:32:09.850Z,88.80
2019-03-25T04:34:43.040Z,89.33
2019-03-25T04:37:14.274Z,93.00
2019-03-25T04:39:45.712Z,92.57
2019-03-25T04:42:17.278Z,90.67
2019-03-25T04:44:52.618Z,89.42
2019-03-25T04:47:23.782Z,92.60
2019-03-25T04:49:54.914Z,92.33
2019-03-25T04:52:26.145Z,88.45
2019-03-25T04:54:57.197Z,87.70
2019-03-25T04:57:28.916Z,89.90
2019-03-25T05:00:00.514Z,99.45
2019-03-25T05:02:32.200Z,93.95
2019-03-25T05:05:03.581Z,98.40
2019-03-25T05:07:34.684Z,97.33
2019-03-25T05:10:06.578Z,98.67
2019-03-25T05:12:38.352Z,92.72
2019-03-25T05:15:10.167Z,103.02
2019-03-25T05:17:41.264Z,101.82
2019-03-25T05:20:13.893Z,99.90
2019-03-25T05:22:45.086Z,103.57
2019-03-25T05:25:16.273Z,99.10
2019-03-25T05:27:47.899Z,102.70
2019-03-25T05:30:19.163Z,101.80
2019-03-25T05:32:50.321Z,100.58
2019-03-25T05:35:21.675Z,102.40
2019-03-25T05:37:58.947Z,102.85
2019-03-25T05:44:03.623Z,101.97
2019-03-25T05:46:37.067Z,101.90
2019-03-25T05:49:08.625Z,104.07
2019-03-25T05:51:43.864Z,102.80
2019-03-25T05:54:16.271Z,102.83
2019-03-25T05:56:49.742Z,107.05
2019-03-25T05:59:21.542Z,101.80
2019-03-25T06:01:53.124Z,107.60
2019-03-25T06:04:24.922Z,103.83
2019-03-25T06:06:58.184Z,109.95
2019-03-25T06:09:29.505Z,105.03
2019-03-25T06:12:00.593Z,106.47
2019-03-25T06:14:32.873Z,106.17
2019-03-25T06:17:07.853Z,105.80
2019-03-25T06:19:39.227Z,105.00
2019-03-25T06:22:10.975Z,109.03
2019-03-25T06:24:42.021Z,104.83
2019-03-25T06:27:15.765Z,104.10
2019-03-25T06:29:46.898Z,109.57
2019-03-25T06:32:17.964Z,109.87
2019-03-25T06:34:49.139Z,110.65
2019-03-25T06:37:20.471Z,110.32
2019-03-25T06:39:51.467Z,113.97
2019-03-25T06:42:22.584Z,118.72
2019-03-25T06:44:53.612Z,113.45
2019-03-25T06:47:24.990Z,109.07
2019-03-25T06:49:56.469Z,114.08
2019-03-25T06:52:27.736Z,114.97
2019-03-25T06:54:59.692Z,110.63
2019-03-25T06:57:31.964Z,111.23
2019-03-25T07:00:05.188Z,111.92
2019-03-25T07:02:36.440Z,110.90
2019-03-25T07:05:08.557Z,115.90
2019-03-25T07:07:40.352Z,118.67
2019-03-25T07:10:11.729Z,108.97
2019-03-25T07:12:43.862Z,120.07
2019-03-25T07:15:16.796Z,107.45
2019-03-25T07:17:48.033Z,100.27
2019-03-25T07:20:19.489Z,103.37
2019-03-25T07:22:50.637Z,104.80
2019-03-25T07:25:23.572Z,102.50
2019-03-25T07:27:54.855Z,109.60
2019-03-25T07:30:25.885Z,98.80
2019-03-25T07:32:57.017Z,99.28
2019-03-25T07:35:28.631Z,94.37
2019-03-25T07:37:59.951Z,95.83
2019-03-25T07:40:32.110Z,97.05
2019-03-25T07:43:03.358Z,89.77
2019-03-25T07:45:35.078Z,94.20
2019-03-25T07:48:06.829Z,92.92
2019-03-25T07:50:38.209Z,87.47
2019-03-25T07:53:09.891Z,87.97
2019-03-25T07:55:41.737Z,88.00
2019-03-25T07:58:13.124Z,90.50
2019-03-25T08:00:53.667Z,86.80
2019-03-25T08:03:39.179Z,90.97
2019-03-25T08:06:11.035Z,82.20
2019-03-25T08:08:42.283Z,83.37
2019-03-25T08:11:14.254Z,81.12
2019-03-25T08:13:48.771Z,78.75
2019-03-25T08:16:21.664Z,77.80
2019-03-25T08:18:52.702Z,76.07
2019-03-25T08:21:25.134Z,75.22
2019-03-25T08:23:57.945Z,77.00
2019-03-25T08:26:30.440Z,79.42
2019-03-25T08:29:02.176Z,77.20
2019-03-25T08:31:33.726Z,76.80
2019-03-25T08:34:06.285Z,74.40
2019-03-25T08:36:38.740Z,72.60
2019-03-25T08:39:10.457Z,72.27
2019-03-25T08:41:41.659Z,71.70
2019-03-25T08:44:13.167Z,69.27
2019-03-25T08:46:44.506Z,76.60
2019-03-25T08:49:17.684Z,76.17
2019-03-25T08:51:49.736Z,72.10
2019-03-25T08:54:20.767Z,71.85
2019-03-25T08:57:05.468Z,69.10
2019-03-25T08:59:43.908Z,61.77
2019-03-25T09:02:15.846Z,56.37
2019-03-25T09:04:47.001Z,56.60
2019-03-25T09:07:18.593Z,48.85
2019-03-25T09:09:50.491Z,48.28
2019-03-25T09:12:21.655Z,45.95
2019-03-25T09:14:53.046Z,42.65
2019-03-25T09:17:24.212Z,41.53
2019-03-25T09:19:55.505Z,36.93
2019-03-25T09:22:27.568Z,31.20
2019-03-25T09:24:59.000Z,28.32
2019-03-25T09:27:30.161Z,31.37
2019-03-25T09:30:03.443Z,33.20
2019-03-25T09:32:35.672Z,29.52
2019-03-25T09:35:07.244Z,29.48
2019-03-25T09:37:44.798Z,27.62
2019-03-25T09:40:18.088Z,26.05
2019-03-25T09:42:50.185Z,28.73
2019-03-25T09:45:21.532Z,26.05
2019-03-25T09:47:52.711Z,28.10
2019-03-25T09:50:25.796Z,26.85
2019-03-25T09:52:58.506Z,26.65
2019-03-25T09:55:29.815Z,27.37
2019-03-25T09:58:01.147Z,25.88
2019-03-25T10:00:33.193Z,24.80
2019-03-25T10:03:09.636Z,24.10
2019-03-25T10:05:41.465Z,21.62
2019-03-25T10:08:13.502Z,21.48
2019-03-25T10:10:45.088Z,24.67
2019-03-25T10:13:16.454Z,22.70
2019-03-25T10:15:48.027Z,20.90
2019-03-25T10:18:19.437Z,23.38
2019-03-25T10:20:52.055Z,20.15
2019-03-25T10:23:25.151Z,20.32
2019-03-25T10:26:01.736Z,22.03
2019-03-25T10:28:48.394Z,20.37
2019-03-25T10:31:17.408Z,20.97
2019-03-25T10:33:54.870Z,19.30
2019-03-25T10:36:26.575Z,20.32
2019-03-25T10:38:57.705Z,18.87
2019-03-25T10:41:29.226Z,17.52
2019-03-25T10:44:03.034Z,18.85
2019-03-25T10:46:34.906Z,17.07
2019-03-25T10:49:06.989Z,17.37
2019-03-25T10:51:42.435Z,17.50
2019-03-25T10:54:26.636Z,15.30
2019-03-25T10:57:09.122Z,16.25
2019-03-25T10:59:47.657Z,17.25
2019-03-25T11:02:21.097Z,16.97
2019-03-25T11:04:52.740Z,16.60
2019-03-25T11:07:29.329Z,18.35
2019-03-25T11:10:00.484Z,17.62
2019-03-25T11:12:40.288Z,17.87
2019-03-25T11:15:22.094Z,18.32
2019-03-25T11:17:54.781Z,15.32
2019-03-25T11:20:29.299Z,18.25
2019-03-25T11:23:00.428Z,14.78
2019-03-25T11:25:32.850Z,15.28
2019-03-25T11:28:08.792Z,16.05
2019-03-25T11:30:59.312Z,14.25
2019-03-25T11:33:38.753Z,14.40
2019-03-25T11:36:10.566Z,16.07
2019-03-25T11:38:42.083Z,13.30
2019-03-25T11:41:26.098Z,13.18
2019-03-25T11:44:00.404Z,12.25
2019-03-25T11:46:31.598Z,13.90
2019-03-25T11:49:02.775Z,18.42
2019-03-25T11:51:34.303Z,13.28
2019-03-25T11:54:07.421Z,13.00
2019-03-25T11:56:42.158Z,13.22
2019-03-25T11:59:18.500Z,10.65
2019-03-25T12:01:46.924Z,12.23
2019-03-25T12:04:18.007Z,11.48
2019-03-25T12:06:49.673Z,12.05
2019-03-25T12:09:24.771Z,11.73
2019-03-25T12:11:56.051Z,11.37
2019-03-25T12:14:28.522Z,8.38
2019-03-25T12:17:00.570Z,10.00
2019-03-25T12:19:31.774Z,8.87
2019-03-25T12:22:03.241Z,9.00
2019-03-25T12:24:35.337Z,9.20
2019-03-25T12:27:06.974Z,10.43
2019-03-25T12:29:38.430Z,7.78
2019-03-25T12:32:10.130Z,10.38
2019-03-25T12:34:41.375Z,6.93
2019-03-25T12:37:12.530Z,7.58
2019-03-25T12:39:44.890Z,9.75
2019-03-25T12:42:16.105Z,6.22
2019-03-25T12:44:47.235Z,8.20
2019-03-25T12:47:18.621Z,6.22
2019-03-25T12:49:49.785Z,6.85
2019-03-25T12:52:21.011Z,6.53
2019-03-25T12:54:52.386Z,7.37
2019-03-25T12:57:24.022Z,7.72
2019-03-25T12:59:55.332Z,7.90
2019-03-25T13:02:28.114Z,9.13
2019-03-25T13:05:00.381Z,7.15
2019-03-25T13:07:31.764Z,10.53
2019-03-25T13:10:04.781Z,12.63
2019-03-25T13:12:36.877Z,10.13
2019-03-25T13:15:08.703Z,9.35
2019-03-25T13:17:40.424Z,9.65
2019-03-25T13:20:13.036Z,10.75
2019-03-25T13:22:44.981Z,9.53
2019-03-25T13:25:16.359Z,10.97
2019-03-25T13:27:47.981Z,10.68
2019-03-25T13:30:22.551Z,11.48
2019-03-25T13:32:54.007Z,12.85
2019-03-25T13:35:25.247Z,12.53
2019-03-25T13:37:58.883Z,12.90
2019-03-25T13:40:29.671Z,10.32
2019-03-25T13:43:01.511Z,10.75
2019-03-25T13:45:33.798Z,11.28
2019-03-25T13:48:06.940Z,10.53
2019-03-25T13:50:39.268Z,11.28
2019-03-25T13:53:13.297Z,12.68
2019-03-25T13:55:57.352Z,10.63
2019-03-25T13:58:29.735Z,9.90
2019-03-25T14:01:00.859Z,9.35
2019-03-25T14:03:35.156Z,11.90
2019-03-25T14:06:08.240Z,9.78
2019-03-25T14:08:42.730Z,10.18
2019-03-25T14:11:17.924Z,11.12
2019-03-25T14:13:49.672Z,8.93
2019-03-25T14:16:23.321Z,8.60
2019-03-25T14:18:54.571Z,8.03
2019-03-25T14:21:26.864Z,7.07
2019-03-25T14:23:58.625Z,8.93
2019-03-25T14:26:30.369Z,7.62
2019-03-25T14:29:01.662Z,10.15
2019-03-25T14:31:32.894Z,8.93
2019-03-25T14:34:04.327Z,7.80
2019-03-25T14:36:42.045Z,8.78
2019-03-25T14:39:14.669Z,7.37
2019-03-25T14:41:46.702Z,8.58
2019-03-25T14:44:18.160Z,9.53
2019-03-25T14:46:49.626Z,10.28
2019-03-25T14:49:23.415Z,8.68
2019-03-25T14:51:54.734Z,9.25
2019-03-25T14:54:25.783Z,8.10
2019-03-25T14:56:59.532Z,7.12
2019-03-25T14:59:31.084Z,7.67
2019-03-25T15:02:02.612Z,7.20
2019-03-25T15:04:34.006Z,10.45
2019-03-25T15:07:05.416Z,11.97
2019-03-25T15:09:36.659Z,12.53
2019-03-25T15:12:07.858Z,11.90
2019-03-25T15:14:39.483Z,10.53
2019-03-25T15:17:10.569Z,9.93
2019-03-25T15:19:42.218Z,11.60
2019-03-25T15:22:15.051Z,11.10
2019-03-25T15:24:46.410Z,11.15
2019-03-25T15:27:17.898Z,10.43
2019-03-25T15:29:49.399Z,12.73
2019-03-25T15:32:20.864Z,13.28
2019-03-25T15:34:52.212Z,11.40
2019-03-25T15:37:23.401Z,12.73
2019-03-25T15:39:55.150Z,11.10
2019-03-25T15:42:26.915Z,11.10
2019-03-25T15:44:58.750Z,12.20
2019-03-25T15:47:30.725Z,9.10
2019-03-25T15:50:02.720Z,10.05
2019-03-25T15:52:34.175Z,10.15
2019-03-25T15:55:05.590Z,10.82
2019-03-25T15:57:39.553Z,11.20
2019-03-25T16:00:14.286Z,11.38
2019-03-25T16:02:46.398Z,9.73
2019-03-25T16:05:17.952Z,11.05
2019-03-25T16:07:52.924Z,9.87
2019-03-25T16:10:24.311Z,8.60
2019-03-25T16:12:57.535Z,8.13
2019-03-25T16:15:39.617Z,8.45
2019-03-25T16:18:18.398Z,6.50
2019-03-25T16:20:51.263Z,6.87
2019-03-25T16:23:22.655Z,7.30
2019-03-25T16:25:53.967Z,7.25
2019-03-25T16:28:25.864Z,6.70
2019-03-25T16:30:59.027Z,6.30
2019-03-25T16:33:30.432Z,6.33
2019-03-25T16:36:01.572Z,6.90
2019-03-25T16:38:33.294Z,8.40
2019-03-25T16:41:05.203Z,6.60
2019-03-25T16:43:36.295Z,9.68
2019-03-25T16:46:07.747Z,7.47
2019-03-25T16:48:39.045Z,6.40
2019-03-25T16:51:11.036Z,7.62
2019-03-25T16:53:42.051Z,5.65
2019-03-25T16:56:13.303Z,6.62
2019-03-25T16:58:44.471Z,6.28
2019-03-25T17:01:16.651Z,6.72
2019-03-25T17:03:48.276Z,6.47
2019-03-25T17:06:19.789Z,8.25
2019-03-25T17:08:51.699Z,7.90
2019-03-25T17:11:23.308Z,10.03
2019-03-25T17:13:55.780Z,7.25
2019-03-25T17:16:27.837Z,8.20
2019-03-25T17:18:58.930Z,8.58
2019-03-25T17:21:30.919Z,8.03
2019-03-25T17:24:02.210Z,8.05
2019-03-25T17:26:42.050Z,10.13
2019-03-25T17:29:07.813Z,8.75
2019-03-25T17:31:39.670Z,9.93
2019-03-25T17:34:11.193Z,12.63
2019-03-25T17:36:42.252Z,9.08
2019-03-25T17:39:14.523Z,12.45
2019-03-25T17:41:46.241Z,10.05
2019-03-25T17:44:17.957Z,9.48
2019-03-25T17:46:49.260Z,10.05
2019-03-25T17:49:20.742Z,9.15
2019-03-25T17:51:51.892Z,9.50
2019-03-25T17:54:27.620Z,10.53
2019-03-25T17:56:58.711Z,8.05
2019-03-25T17:59:30.123Z,9.63
2019-03-25T18:02:01.402Z,8.28
2019-03-25T18:04:32.584Z,8.50
2019-03-25T18:07:03.576Z,7.60
2019-03-25T18:09:34.693Z,8.38
2019-03-25T18:12:05.726Z,10.18
2019-03-25T18:14:41.085Z,6.15
2019-03-25T18:17:14.599Z,7.47
2019-03-25T18:19:46.274Z,6.22
2019-03-25T18:22:18.029Z,8.78
2019-03-25T18:25:02.196Z,7.47
2019-03-25T18:27:39.849Z,9.38
2019-03-25T18:30:14.300Z,6.90
2019-03-25T18:32:45.533Z,11.90
2019-03-25T18:35:26.593Z,6.03
2019-03-25T18:37:58.158Z,8.48
2019-03-25T18:40:30.727Z,7.08
2019-03-25T18:43:02.410Z,6.50
2019-03-25T18:45:34.424Z,7.58
2019-03-25T18:48:12.786Z,8.65
2019-03-25T18:50:54.787Z,7.87
2019-03-25T18:53:26.471Z,7.45
2019-03-25T18:55:58.508Z,8.70
2019-03-25T18:58:30.418Z,8.38
2019-03-25T19:01:03.544Z,7.28
2019-03-25T19:03:37.398Z,7.28
2019-03-25T19:06:08.636Z,8.05
2019-03-25T19:08:40.761Z,9.23
2019-03-25T19:11:12.459Z,7.90
2019-03-25T19:13:43.631Z,8.25
2019-03-25T19:16:15.972Z,8.95
2019-03-25T19:18:49.578Z,8.48
2019-03-25T19:21:20.747Z,9.98
2019-03-25T19:23:52.361Z,8.65
2019-03-25T19:26:23.579Z,8.45
2019-03-25T19:28:54.827Z,9.90
2019-03-25T19:31:26.313Z,8.33
2019-03-25T19:33:57.737Z,9.93
2019-03-25T19:36:29.335Z,9.13
2019-03-25T19:39:01.030Z,10.33
2019-03-25T19:41:33.279Z,11.50
2019-03-25T19:44:04.817Z,9.93
2019-03-25T19:46:36.046Z,11.10
2019-03-25T19:49:07.490Z,11.33
2019-03-25T19:51:46.122Z,13.10
2019-03-25T19:54:22.336Z,10.88
2019-03-25T19:56:53.544Z,11.45
2019-03-25T19:59:26.544Z,10.38
2019-03-25T20:01:58.192Z,11.00
2019-03-25T20:04:29.327Z,10.50
2019-03-25T20:07:00.479Z,9.63
2019-03-25T20:09:33.091Z,10.93
2019-03-25T20:12:04.821Z,9.97
2019-03-25T20:14:46.098Z,12.37
2019-03-25T20:17:18.385Z,10.63
2019-03-25T20:19:49.564Z,8.45
2019-03-25T20:22:22.430Z,8.55
2019-03-25T20:24:54.260Z,7.63
2019-03-25T20:27:25.439Z,8.95
2019-03-25T20:29:57.036Z,6.55
2019-03-25T20:32:31.929Z,5.78
2019-03-25T20:35:02.031Z,6.20
2019-03-25T20:37:33.757Z,5.60
2019-03-25T20:40:05.462Z,5.87
2019-03-25T20:42:36.614Z,6.58
2019-03-25T20:45:08.285Z,7.28
2019-03-25T20:47:40.089Z,5.00
2019-03-25T20:50:21.551Z,4.70
2019-03-25T20:52:57.928Z,6.12
2019-03-25T20:55:44.628Z,5.05
2019-03-25T20:58:26.201Z,5.53
2019-03-25T21:00:59.040Z,4.73
2019-03-25T21:03:30.247Z,5.20
2019-03-25T21:06:01.549Z,6.05
2019-03-25T21:08:32.999Z,4.87
2019-03-25T21:11:04.449Z,4.70
2019-03-25T21:13:41.757Z,4.65
2019-03-25T21:16:17.360Z,4.10
2019-03-25T21:18:52.184Z,4.35
2019-03-25T21:21:22.246Z,4.80
2019-03-25T21:23:53.892Z,4.92
2019-03-25T21:26:25.060Z,4.62
2019-03-25T21:28:56.746Z,4.07
2019-03-25T21:34:14.210Z,5.22
2019-03-25T21:36:45.680Z,5.53
2019-03-25T21:39:18.256Z,6.00
2019-03-25T21:41:50.046Z,5.87
2019-03-25T21:44:22.134Z,5.90
2019-03-25T21:46:53.403Z,5.10
2019-03-25T21:49:24.880Z,5.90
2019-03-25T21:51:56.189Z,5.80
2019-03-25T21:54:27.575Z,5.15
2019-03-25T21:56:58.796Z,4.75
2019-03-25T21:59:30.895Z,4.85
2019-03-25T22:02:02.491Z,5.25
2019-03-25T22:04:35.005Z,5.83
2019-03-25T22:07:07.041Z,6.08
2019-03-25T22:09:38.203Z,4.95
2019-03-25T22:12:09.684Z,5.37
2019-03-25T22:14:41.165Z,6.40
2019-03-25T22:17:12.856Z,6.80
2019-03-25T22:19:44.089Z,5.90
2019-03-25T22:22:15.340Z,5.70
2019-03-25T22:24:46.585Z,6.37
2019-03-25T22:27:17.682Z,6.20
2019-03-25T22:29:52.923Z,8.43
2019-03-25T22:32:24.169Z,7.20
2019-03-25T22:34:55.844Z,6.90
2019-03-25T22:37:27.238Z,7.45
2019-03-25T22:39:58.467Z,7.42
2019-03-25T22:42:29.874Z,7.78
2019-03-25T22:45:04.253Z,6.90
2019-03-25T22:47:38.737Z,9.08
2019-03-25T22:50:12.209Z,8.15
2019-03-25T22:52:45.460Z,8.58
2019-03-25T22:55:16.664Z,8.98
2019-03-25T22:57:50.072Z,8.33
2019-03-25T23:00:24.283Z,8.85
2019-03-25T23:02:59.443Z,8.20
2019-03-25T23:05:31.572Z,9.43
2019-03-25T23:08:03.345Z,9.00
2019-03-25T23:10:34.976Z,11.27
2019-03-25T23:13:33.357Z,9.13
2019-03-25T23:16:04.569Z,8.98
2019-03-25T23:18:36.199Z,12.35
2019-03-25T23:21:08.202Z,8.95
2019-03-25T23:23:39.793Z,11.22
2019-03-25T23:26:11.367Z,10.00
2019-03-25T23:28:42.468Z,10.28
2019-03-25T23:31:13.649Z,10.08
2019-03-25T23:33:52.116Z,11.45
2019-03-25T23:36:17.755Z,11.00
2019-03-25T23:38:48.818Z,10.70
2019-03-25T23:41:20.742Z,9.63
2019-03-25T23:43:51.950Z,12.65
2019-03-25T23:46:23.479Z,11.57
2019-03-25T23:48:54.910Z,10.63
2019-03-25T23:51:26.143Z,11.40
2019-03-25T23:54:12.180Z,11.00
2019-03-25T23:56:43.807Z,10.45
2019-03-25T23:59:15.001Z,11.33
